sensor_id;sensor_type;location;lat;lon;timestamp;P1;durP1;ratioP1;P2;durP2;ratioP2
15480;SDS011;7842;50.904;6.670;2022-08-19T00:00:27;13.02;;;11.73;;
15480;SDS011;7842;50.904;6.670;2022-08-19T00:02:53;13.35;;;12.00;;
15480;SDS011;7842;50.904;6.670;2022-08-19T00:05:19;13.63;;;12.23;;
15480;SDS011;7842;50.904;6.670;2022-08-19T00:07:46;14.13;;;12.48;;
15480;SDS011;7842;50.904;6.670;2022-08-19T00:10:13;14.70;;;13.20;;
15480;SDS011;7842;50.904;6.670;2022-08-19T00:12:39;14.07;;;12.70;;
15480;SDS011;7842;50.904;6.670;2022-08-19T00:15:07;14.10;;;12.70;;
15480;SDS011;7842;50.904;6.670;2022-08-19T00:17:36;13.30;;;11.85;;
15480;SDS011;7842;50.904;6.670;2022-08-19T00:20:02;13.98;;;12.68;;
15480;SDS011;7842;50.904;6.670;2022-08-19T00:22:29;13.20;;;12.00;;
15480;SDS011;7842;50.904;6.670;2022-08-19T00:24:55;13.98;;;12.50;;
15480;SDS011;7842;50.904;6.670;2022-08-19T00:27:21;14.50;;;13.05;;
15480;SDS011;7842;50.904;6.670;2022-08-19T00:29:47;14.77;;;13.30;;
15480;SDS011;7842;50.904;6.670;2022-08-19T00:32:13;14.88;;;13.48;;
15480;SDS011;7842;50.904;6.670;2022-08-19T00:34:39;16.17;;;14.25;;
15480;SDS011;7842;50.904;6.670;2022-08-19T00:37:05;15.98;;;14.35;;
15480;SDS011;7842;50.904;6.670;2022-08-19T00:39:31;14.85;;;13.45;;
15480;SDS011;7842;50.904;6.670;2022-08-19T00:41:57;14.20;;;12.90;;
15480;SDS011;7842;50.904;6.670;2022-08-19T00:44:24;14.50;;;13.10;;
15480;SDS011;7842;50.904;6.670;2022-08-19T00:46:51;14.55;;;13.25;;
15480;SDS011;7842;50.904;6.670;2022-08-19T00:49:22;14.43;;;13.03;;
15480;SDS011;7842;50.904;6.670;2022-08-19T00:51:51;15.63;;;14.02;;
15480;SDS011;7842;50.904;6.670;2022-08-19T00:54:19;15.73;;;14.02;;
15480;SDS011;7842;50.904;6.670;2022-08-19T00:56:46;16.02;;;14.30;;
15480;SDS011;7842;50.904;6.670;2022-08-19T00:59:12;16.15;;;14.50;;
15480;SDS011;7842;50.904;6.670;2022-08-19T01:01:39;16.05;;;14.45;;
15480;SDS011;7842;50.904;6.670;2022-08-19T01:04:06;15.45;;;13.95;;
15480;SDS011;7842;50.904;6.670;2022-08-19T01:06:32;16.65;;;15.05;;
15480;SDS011;7842;50.904;6.670;2022-08-19T01:08:59;16.38;;;14.77;;
15480;SDS011;7842;50.904;6.670;2022-08-19T01:11:28;15.85;;;14.32;;
15480;SDS011;7842;50.904;6.670;2022-08-19T01:13:56;16.15;;;14.65;;
15480;SDS011;7842;50.904;6.670;2022-08-19T01:16:23;15.30;;;13.70;;
15480;SDS011;7842;50.904;6.670;2022-08-19T01:18:49;15.23;;;13.70;;
15480;SDS011;7842;50.904;6.670;2022-08-19T01:21:25;14.05;;;12.70;;
15480;SDS011;7842;50.904;6.670;2022-08-19T01:23:52;13.80;;;12.50;;
15480;SDS011;7842;50.904;6.670;2022-08-19T01:26:20;13.73;;;12.40;;
15480;SDS011;7842;50.904;6.670;2022-08-19T01:28:48;13.00;;;11.80;;
15480;SDS011;7842;50.904;6.670;2022-08-19T01:31:18;12.02;;;10.75;;
15480;SDS011;7842;50.904;6.670;2022-08-19T01:33:46;12.60;;;11.05;;
15480;SDS011;7842;50.904;6.670;2022-08-19T01:36:15;12.48;;;11.27;;
15480;SDS011;7842;50.904;6.670;2022-08-19T01:38:42;11.90;;;10.80;;
15480;SDS011;7842;50.904;6.670;2022-08-19T01:41:10;12.00;;;10.80;;
15480;SDS011;7842;50.904;6.670;2022-08-19T01:43:37;11.70;;;10.60;;
15480;SDS011;7842;50.904;6.670;2022-08-19T01:46:03;11.48;;;10.38;;
15480;SDS011;7842;50.904;6.670;2022-08-19T01:48:33;11.73;;;10.63;;
15480;SDS011;7842;50.904;6.670;2022-08-19T01:50:59;11.82;;;10.63;;
15480;SDS011;7842;50.904;6.670;2022-08-19T01:53:25;13.00;;;11.77;;
15480;SDS011;7842;50.904;6.670;2022-08-19T01:55:51;12.45;;;11.30;;
15480;SDS011;7842;50.904;6.670;2022-08-19T01:58:21;12.30;;;11.10;;
15480;SDS011;7842;50.904;6.670;2022-08-19T02:00:48;11.75;;;10.65;;
15480;SDS011;7842;50.904;6.670;2022-08-19T02:03:14;12.65;;;11.45;;
15480;SDS011;7842;50.904;6.670;2022-08-19T02:05:41;13.15;;;11.85;;
15480;SDS011;7842;50.904;6.670;2022-08-19T02:08:07;12.93;;;11.53;;
15480;SDS011;7842;50.904;6.670;2022-08-19T02:10:33;15.13;;;13.63;;
15480;SDS011;7842;50.904;6.670;2022-08-19T02:13:03;14.40;;;13.00;;
15480;SDS011;7842;50.904;6.670;2022-08-19T02:15:29;13.77;;;12.47;;
15480;SDS011;7842;50.904;6.670;2022-08-19T02:17:55;15.07;;;13.57;;
15480;SDS011;7842;50.904;6.670;2022-08-19T02:20:21;13.60;;;12.30;;
15480;SDS011;7842;50.904;6.670;2022-08-19T02:22:47;13.27;;;11.97;;
15480;SDS011;7842;50.904;6.670;2022-08-19T02:25:13;13.20;;;11.90;;
15480;SDS011;7842;50.904;6.670;2022-08-19T02:27:40;13.30;;;11.98;;
15480;SDS011;7842;50.904;6.670;2022-08-19T02:30:07;14.05;;;12.65;;
15480;SDS011;7842;50.904;6.670;2022-08-19T02:32:34;12.85;;;11.60;;
15480;SDS011;7842;50.904;6.670;2022-08-19T02:35:00;13.17;;;11.87;;
15480;SDS011;7842;50.904;6.670;2022-08-19T02:37:26;14.60;;;13.13;;
15480;SDS011;7842;50.904;6.670;2022-08-19T02:40:11;13.95;;;12.65;;
15480;SDS011;7842;50.904;6.670;2022-08-19T02:42:37;14.07;;;12.73;;
15480;SDS011;7842;50.904;6.670;2022-08-19T02:45:05;14.30;;;13.00;;
15480;SDS011;7842;50.904;6.670;2022-08-19T02:47:32;14.75;;;13.30;;
15480;SDS011;7842;50.904;6.670;2022-08-19T02:49:58;14.20;;;12.90;;
15480;SDS011;7842;50.904;6.670;2022-08-19T02:52:25;15.18;;;13.65;;
15480;SDS011;7842;50.904;6.670;2022-08-19T02:54:53;15.40;;;13.90;;
15480;SDS011;7842;50.904;6.670;2022-08-19T02:57:22;15.52;;;13.95;;
15480;SDS011;7842;50.904;6.670;2022-08-19T02:59:48;14.48;;;12.98;;
15480;SDS011;7842;50.904;6.670;2022-08-19T03:02:15;13.97;;;12.57;;
15480;SDS011;7842;50.904;6.670;2022-08-19T03:04:41;14.07;;;12.77;;
15480;SDS011;7842;50.904;6.670;2022-08-19T03:07:07;14.13;;;12.77;;
15480;SDS011;7842;50.904;6.670;2022-08-19T03:09:36;13.60;;;12.40;;
15480;SDS011;7842;50.904;6.670;2022-08-19T03:12:02;14.90;;;13.23;;
15480;SDS011;7842;50.904;6.670;2022-08-19T03:14:30;15.00;;;13.50;;
15480;SDS011;7842;50.904;6.670;2022-08-19T03:16:56;14.10;;;12.70;;
15480;SDS011;7842;50.904;6.670;2022-08-19T03:19:22;15.57;;;14.00;;
15480;SDS011;7842;50.904;6.670;2022-08-19T03:21:49;14.10;;;12.80;;
15480;SDS011;7842;50.904;6.670;2022-08-19T03:24:15;14.52;;;13.05;;
15480;SDS011;7842;50.904;6.670;2022-08-19T03:26:43;14.60;;;13.30;;
15480;SDS011;7842;50.904;6.670;2022-08-19T03:29:09;15.50;;;13.90;;
15480;SDS011;7842;50.904;6.670;2022-08-19T03:31:36;14.35;;;12.95;;
15480;SDS011;7842;50.904;6.670;2022-08-19T03:34:02;15.57;;;14.00;;
15480;SDS011;7842;50.904;6.670;2022-08-19T03:36:28;15.25;;;13.75;;
15480;SDS011;7842;50.904;6.670;2022-08-19T03:38:55;15.00;;;13.60;;
15480;SDS011;7842;50.904;6.670;2022-08-19T03:41:23;15.25;;;13.82;;
15480;SDS011;7842;50.904;6.670;2022-08-19T03:43:50;14.77;;;13.38;;
15480;SDS011;7842;50.904;6.670;2022-08-19T03:46:17;14.10;;;12.85;;
15480;SDS011;7842;50.904;6.670;2022-08-19T03:48:46;16.70;;;15.00;;
15480;SDS011;7842;50.904;6.670;2022-08-19T03:51:19;17.02;;;15.27;;
15480;SDS011;7842;50.904;6.670;2022-08-19T03:53:45;17.13;;;15.52;;
15480;SDS011;7842;50.904;6.670;2022-08-19T03:56:12;16.40;;;14.70;;
15480;SDS011;7842;50.904;6.670;2022-08-19T03:58:38;16.23;;;14.67;;
15480;SDS011;7842;50.904;6.670;2022-08-19T04:01:08;16.30;;;14.73;;
15480;SDS011;7842;50.904;6.670;2022-08-19T04:03:35;16.50;;;14.88;;
15480;SDS011;7842;50.904;6.670;2022-08-19T04:06:09;18.00;;;16.00;;
15480;SDS011;7842;50.904;6.670;2022-08-19T04:08:35;17.15;;;15.48;;
15480;SDS011;7842;50.904;6.670;2022-08-19T04:11:05;17.02;;;15.00;;
15480;SDS011;7842;50.904;6.670;2022-08-19T04:13:32;17.08;;;15.23;;
15480;SDS011;7842;50.904;6.670;2022-08-19T04:15:59;16.70;;;15.07;;
15480;SDS011;7842;50.904;6.670;2022-08-19T04:18:25;16.80;;;15.10;;
15480;SDS011;7842;50.904;6.670;2022-08-19T04:20:51;17.70;;;16.00;;
15480;SDS011;7842;50.904;6.670;2022-08-19T04:23:17;18.70;;;16.83;;
15480;SDS011;7842;50.904;6.670;2022-08-19T04:25:43;18.23;;;16.42;;
15480;SDS011;7842;50.904;6.670;2022-08-19T04:28:11;18.60;;;16.77;;
15480;SDS011;7842;50.904;6.670;2022-08-19T04:30:41;17.83;;;15.93;;
15480;SDS011;7842;50.904;6.670;2022-08-19T04:33:07;19.38;;;17.38;;
15480;SDS011;7842;50.904;6.670;2022-08-19T04:35:34;20.30;;;18.10;;
15480;SDS011;7842;50.904;6.670;2022-08-19T04:38:01;19.73;;;17.63;;
15480;SDS011;7842;50.904;6.670;2022-08-19T04:40:27;20.33;;;18.23;;
15480;SDS011;7842;50.904;6.670;2022-08-19T04:43:12;19.83;;;17.73;;
15480;SDS011;7842;50.904;6.670;2022-08-19T04:45:40;21.08;;;18.83;;
15480;SDS011;7842;50.904;6.670;2022-08-19T04:48:06;20.90;;;18.73;;
15480;SDS011;7842;50.904;6.670;2022-08-19T04:50:32;20.00;;;17.90;;
15480;SDS011;7842;50.904;6.670;2022-08-19T04:52:58;21.58;;;19.38;;
15480;SDS011;7842;50.904;6.670;2022-08-19T04:55:24;20.73;;;18.63;;
15480;SDS011;7842;50.904;6.670;2022-08-19T04:57:50;24.80;;;22.08;;
15480;SDS011;7842;50.904;6.670;2022-08-19T05:00:16;27.15;;;24.30;;
15480;SDS011;7842;50.904;6.670;2022-08-19T05:02:42;27.27;;;24.27;;
15480;SDS011;7842;50.904;6.670;2022-08-19T05:05:08;27.85;;;24.90;;
15480;SDS011;7842;50.904;6.670;2022-08-19T05:07:35;28.13;;;25.23;;
15480;SDS011;7842;50.904;6.670;2022-08-19T05:10:01;28.40;;;25.48;;
15480;SDS011;7842;50.904;6.670;2022-08-19T05:12:27;27.13;;;24.33;;
15480;SDS011;7842;50.904;6.670;2022-08-19T05:14:53;26.90;;;23.85;;
15480;SDS011;7842;50.904;6.670;2022-08-19T05:17:21;29.73;;;26.63;;
15480;SDS011;7842;50.904;6.670;2022-08-19T05:19:47;29.73;;;26.63;;
15480;SDS011;7842;50.904;6.670;2022-08-19T05:22:32;30.88;;;27.67;;
15480;SDS011;7842;50.904;6.670;2022-08-19T05:25:08;30.45;;;27.15;;
15480;SDS011;7842;50.904;6.670;2022-08-19T05:27:34;31.45;;;28.08;;
15480;SDS011;7842;50.904;6.670;2022-08-19T05:30:00;33.72;;;29.00;;
15480;SDS011;7842;50.904;6.670;2022-08-19T05:32:26;37.85;;;33.72;;
15480;SDS011;7842;50.904;6.670;2022-08-19T05:34:53;39.25;;;35.00;;
15480;SDS011;7842;50.904;6.670;2022-08-19T05:37:19;39.50;;;35.25;;
15480;SDS011;7842;50.904;6.670;2022-08-19T05:39:46;39.42;;;35.13;;
15480;SDS011;7842;50.904;6.670;2022-08-19T05:42:13;40.63;;;36.17;;
15480;SDS011;7842;50.904;6.670;2022-08-19T05:44:41;44.42;;;37.80;;
15480;SDS011;7842;50.904;6.670;2022-08-19T05:47:19;42.13;;;37.55;;
15480;SDS011;7842;50.904;6.670;2022-08-19T05:49:45;42.03;;;37.53;;
15480;SDS011;7842;50.904;6.670;2022-08-19T05:52:12;42.58;;;37.97;;
15480;SDS011;7842;50.904;6.670;2022-08-19T05:54:40;44.30;;;38.47;;
15480;SDS011;7842;50.904;6.670;2022-08-19T05:57:07;46.28;;;41.28;;
15480;SDS011;7842;50.904;6.670;2022-08-19T05:59:33;44.78;;;39.72;;
15480;SDS011;7842;50.904;6.670;2022-08-19T06:02:03;45.25;;;39.38;;
15480;SDS011;7842;50.904;6.670;2022-08-19T06:04:29;45.63;;;40.15;;
15480;SDS011;7842;50.904;6.670;2022-08-19T06:06:55;44.47;;;39.17;;
15480;SDS011;7842;50.904;6.670;2022-08-19T06:09:25;43.30;;;38.08;;
15480;SDS011;7842;50.904;6.670;2022-08-19T06:11:56;45.20;;;38.97;;
15480;SDS011;7842;50.904;6.670;2022-08-19T06:14:26;46.97;;;40.00;;
15480;SDS011;7842;50.904;6.670;2022-08-19T06:16:52;51.20;;;42.60;;
15480;SDS011;7842;50.904;6.670;2022-08-19T06:19:19;48.88;;;42.20;;
15480;SDS011;7842;50.904;6.670;2022-08-19T06:21:47;54.67;;;43.35;;
15480;SDS011;7842;50.904;6.670;2022-08-19T06:24:14;55.22;;;44.92;;
15480;SDS011;7842;50.904;6.670;2022-08-19T06:26:41;55.95;;;44.65;;
15480;SDS011;7842;50.904;6.670;2022-08-19T06:29:08;55.10;;;44.72;;
15480;SDS011;7842;50.904;6.670;2022-08-19T06:31:35;57.13;;;46.53;;
15480;SDS011;7842;50.904;6.670;2022-08-19T06:34:02;58.60;;;46.63;;
15480;SDS011;7842;50.904;6.670;2022-08-19T06:36:29;58.58;;;47.20;;
15480;SDS011;7842;50.904;6.670;2022-08-19T06:38:59;58.95;;;46.15;;
15480;SDS011;7842;50.904;6.670;2022-08-19T06:41:26;55.97;;;45.92;;
15480;SDS011;7842;50.904;6.670;2022-08-19T06:43:52;55.17;;;44.60;;
15480;SDS011;7842;50.904;6.670;2022-08-19T06:46:21;55.58;;;43.58;;
15480;SDS011;7842;50.904;6.670;2022-08-19T06:48:47;56.13;;;44.25;;
15480;SDS011;7842;50.904;6.670;2022-08-19T06:51:18;56.25;;;43.05;;
15480;SDS011;7842;50.904;6.670;2022-08-19T06:53:48;54.25;;;43.17;;
15480;SDS011;7842;50.904;6.670;2022-08-19T06:56:19;52.67;;;42.80;;
15480;SDS011;7842;50.904;6.670;2022-08-19T06:58:46;56.63;;;42.60;;
15480;SDS011;7842;50.904;6.670;2022-08-19T07:01:13;53.60;;;41.83;;
15480;SDS011;7842;50.904;6.670;2022-08-19T07:03:39;54.17;;;42.10;;
15480;SDS011;7842;50.904;6.670;2022-08-19T07:06:10;53.07;;;42.37;;
15480;SDS011;7842;50.904;6.670;2022-08-19T07:08:37;55.53;;;43.10;;
15480;SDS011;7842;50.904;6.670;2022-08-19T07:11:06;55.60;;;42.97;;
15480;SDS011;7842;50.904;6.670;2022-08-19T07:13:33;56.13;;;43.75;;
15480;SDS011;7842;50.904;6.670;2022-08-19T07:16:08;56.17;;;43.83;;
15480;SDS011;7842;50.904;6.670;2022-08-19T07:18:36;59.38;;;45.47;;
15480;SDS011;7842;50.904;6.670;2022-08-19T07:21:08;62.90;;;47.92;;
15480;SDS011;7842;50.904;6.670;2022-08-19T07:23:35;68.70;;;50.05;;
15480;SDS011;7842;50.904;6.670;2022-08-19T07:26:08;71.70;;;50.15;;
15480;SDS011;7842;50.904;6.670;2022-08-19T07:28:35;68.90;;;50.10;;
15480;SDS011;7842;50.904;6.670;2022-08-19T07:31:04;65.28;;;48.60;;
15480;SDS011;7842;50.904;6.670;2022-08-19T07:33:31;68.13;;;48.33;;
15480;SDS011;7842;50.904;6.670;2022-08-19T07:35:57;71.00;;;50.30;;
15480;SDS011;7842;50.904;6.670;2022-08-19T07:38:24;70.10;;;49.63;;
15480;SDS011;7842;50.904;6.670;2022-08-19T07:40:50;66.88;;;49.28;;
15480;SDS011;7842;50.904;6.670;2022-08-19T07:43:16;69.90;;;49.35;;
15480;SDS011;7842;50.904;6.670;2022-08-19T07:45:47;65.68;;;48.38;;
15480;SDS011;7842;50.904;6.670;2022-08-19T07:48:13;67.68;;;48.88;;
15480;SDS011;7842;50.904;6.670;2022-08-19T07:50:40;70.88;;;49.33;;
15480;SDS011;7842;50.904;6.670;2022-08-19T07:53:06;69.57;;;50.15;;
15480;SDS011;7842;50.904;6.670;2022-08-19T07:55:31;70.05;;;50.05;;
15480;SDS011;7842;50.904;6.670;2022-08-19T07:57:58;70.75;;;50.88;;
15480;SDS011;7842;50.904;6.670;2022-08-19T08:00:25;70.50;;;49.40;;
15480;SDS011;7842;50.904;6.670;2022-08-19T08:02:51;68.07;;;49.30;;
15480;SDS011;7842;50.904;6.670;2022-08-19T08:05:17;69.07;;;50.17;;
15480;SDS011;7842;50.904;6.670;2022-08-19T08:08:02;67.18;;;48.33;;
15480;SDS011;7842;50.904;6.670;2022-08-19T08:11:07;65.72;;;48.47;;
15480;SDS011;7842;50.904;6.670;2022-08-19T08:13:33;69.22;;;49.20;;
15480;SDS011;7842;50.904;6.670;2022-08-19T08:16:00;66.65;;;48.25;;
15480;SDS011;7842;50.904;6.670;2022-08-19T08:18:29;69.18;;;49.38;;
15480;SDS011;7842;50.904;6.670;2022-08-19T08:20:56;63.97;;;47.05;;
15480;SDS011;7842;50.904;6.670;2022-08-19T08:23:23;63.63;;;46.85;;
15480;SDS011;7842;50.904;6.670;2022-08-19T08:25:53;61.43;;;46.33;;
15480;SDS011;7842;50.904;6.670;2022-08-19T08:28:20;64.20;;;46.10;;
15480;SDS011;7842;50.904;6.670;2022-08-19T08:30:47;58.63;;;43.75;;
15480;SDS011;7842;50.904;6.670;2022-08-19T08:33:14;61.63;;;45.13;;
15480;SDS011;7842;50.904;6.670;2022-08-19T08:35:42;58.90;;;44.63;;
15480;SDS011;7842;50.904;6.670;2022-08-19T08:38:10;59.08;;;44.13;;
15480;SDS011;7842;50.904;6.670;2022-08-19T08:40:53;55.55;;;43.00;;
15480;SDS011;7842;50.904;6.670;2022-08-19T08:43:33;52.67;;;41.15;;
15480;SDS011;7842;50.904;6.670;2022-08-19T08:46:03;50.88;;;39.60;;
15480;SDS011;7842;50.904;6.670;2022-08-19T08:48:41;56.00;;;39.00;;
15480;SDS011;7842;50.904;6.670;2022-08-19T08:51:12;47.40;;;37.83;;
15480;SDS011;7842;50.904;6.670;2022-08-19T08:53:40;41.03;;;33.17;;
15480;SDS011;7842;50.904;6.670;2022-08-19T08:56:08;39.25;;;30.83;;
15480;SDS011;7842;50.904;6.670;2022-08-19T09:01:22;37.83;;;31.43;;
15480;SDS011;7842;50.904;6.670;2022-08-19T09:03:48;37.33;;;30.43;;
15480;SDS011;7842;50.904;6.670;2022-08-19T09:11:21;32.73;;;26.93;;
15480;SDS011;7842;50.904;6.670;2022-08-19T09:16:21;29.52;;;24.08;;
15480;SDS011;7842;50.904;6.670;2022-08-19T09:18:52;28.08;;;22.67;;
15480;SDS011;7842;50.904;6.670;2022-08-19T09:21:19;26.35;;;22.02;;
15480;SDS011;7842;50.904;6.670;2022-08-19T09:23:45;26.38;;;22.48;;
15480;SDS011;7842;50.904;6.670;2022-08-19T09:26:14;27.27;;;22.02;;
15480;SDS011;7842;50.904;6.670;2022-08-19T09:28:41;24.60;;;19.58;;
15480;SDS011;7842;50.904;6.670;2022-08-19T09:31:12;25.63;;;21.15;;
15480;SDS011;7842;50.904;6.670;2022-08-19T09:33:38;25.20;;;21.20;;
15480;SDS011;7842;50.904;6.670;2022-08-19T09:36:06;25.00;;;21.20;;
15480;SDS011;7842;50.904;6.670;2022-08-19T09:38:33;27.60;;;22.80;;
15480;SDS011;7842;50.904;6.670;2022-08-19T09:41:12;27.02;;;22.88;;
15480;SDS011;7842;50.904;6.670;2022-08-19T09:43:39;29.33;;;24.50;;
15480;SDS011;7842;50.904;6.670;2022-08-19T09:46:06;30.13;;;24.80;;
15480;SDS011;7842;50.904;6.670;2022-08-19T09:48:50;30.45;;;25.90;;
15480;SDS011;7842;50.904;6.670;2022-08-19T09:51:18;30.30;;;26.13;;
15480;SDS011;7842;50.904;6.670;2022-08-19T09:53:46;27.92;;;24.55;;
15480;SDS011;7842;50.904;6.670;2022-08-19T09:56:15;29.23;;;24.00;;
15480;SDS011;7842;50.904;6.670;2022-08-19T09:58:41;27.20;;;23.83;;
15480;SDS011;7842;50.904;6.670;2022-08-19T10:01:08;26.23;;;22.70;;
15480;SDS011;7842;50.904;6.670;2022-08-19T10:03:34;25.33;;;21.73;;
15480;SDS011;7842;50.904;6.670;2022-08-19T10:06:02;23.43;;;20.90;;
15480;SDS011;7842;50.904;6.670;2022-08-19T10:08:30;23.13;;;20.63;;
15480;SDS011;7842;50.904;6.670;2022-08-19T10:10:57;24.52;;;21.60;;
15480;SDS011;7842;50.904;6.670;2022-08-19T10:13:24;22.53;;;19.93;;
15480;SDS011;7842;50.904;6.670;2022-08-19T10:15:54;22.63;;;20.20;;
15480;SDS011;7842;50.904;6.670;2022-08-19T10:18:21;21.10;;;18.73;;
15480;SDS011;7842;50.904;6.670;2022-08-19T10:20:48;22.60;;;18.83;;
15480;SDS011;7842;50.904;6.670;2022-08-19T10:23:15;20.00;;;17.65;;
15480;SDS011;7842;50.904;6.670;2022-08-19T10:25:41;22.00;;;19.27;;
15480;SDS011;7842;50.904;6.670;2022-08-19T10:28:07;24.83;;;22.13;;
15480;SDS011;7842;50.904;6.670;2022-08-19T10:30:37;20.63;;;18.40;;
15480;SDS011;7842;50.904;6.670;2022-08-19T10:33:04;20.67;;;18.42;;
15480;SDS011;7842;50.904;6.670;2022-08-19T10:35:30;16.02;;;14.43;;
15480;SDS011;7842;50.904;6.670;2022-08-19T10:37:56;16.95;;;15.23;;
15480;SDS011;7842;50.904;6.670;2022-08-19T10:40:25;16.13;;;14.52;;
15480;SDS011;7842;50.904;6.670;2022-08-19T10:42:52;18.27;;;16.40;;
15480;SDS011;7842;50.904;6.670;2022-08-19T10:45:18;19.73;;;17.00;;
15480;SDS011;7842;50.904;6.670;2022-08-19T10:47:47;18.48;;;16.60;;
15480;SDS011;7842;50.904;6.670;2022-08-19T10:50:13;20.92;;;18.73;;
15480;SDS011;7842;50.904;6.670;2022-08-19T10:53:03;20.02;;;17.85;;
15480;SDS011;7842;50.904;6.670;2022-08-19T10:55:29;21.58;;;19.27;;
15480;SDS011;7842;50.904;6.670;2022-08-19T10:58:15;22.30;;;20.00;;
15480;SDS011;7842;50.904;6.670;2022-08-19T11:00:41;21.40;;;19.10;;
15480;SDS011;7842;50.904;6.670;2022-08-19T11:03:08;22.53;;;20.13;;
15480;SDS011;7842;50.904;6.670;2022-08-19T11:05:34;21.08;;;18.88;;
15480;SDS011;7842;50.904;6.670;2022-08-19T11:08:02;20.48;;;18.23;;
15480;SDS011;7842;50.904;6.670;2022-08-19T11:10:28;22.40;;;19.35;;
15480;SDS011;7842;50.904;6.670;2022-08-19T11:12:54;23.50;;;20.08;;
15480;SDS011;7842;50.904;6.670;2022-08-19T11:15:20;24.92;;;21.98;;
15480;SDS011;7842;50.904;6.670;2022-08-19T11:17:46;22.65;;;19.38;;
15480;SDS011;7842;50.904;6.670;2022-08-19T11:20:13;21.10;;;18.90;;
15480;SDS011;7842;50.904;6.670;2022-08-19T11:22:40;25.23;;;22.25;;
15480;SDS011;7842;50.904;6.670;2022-08-19T11:25:06;26.13;;;22.47;;
15480;SDS011;7842;50.904;6.670;2022-08-19T11:27:33;23.40;;;20.90;;
15480;SDS011;7842;50.904;6.670;2022-08-19T11:29:59;26.52;;;21.58;;
15480;SDS011;7842;50.904;6.670;2022-08-19T11:32:25;25.45;;;21.58;;
15480;SDS011;7842;50.904;6.670;2022-08-19T11:34:52;28.90;;;23.43;;
15480;SDS011;7842;50.904;6.670;2022-08-19T11:37:19;26.20;;;21.23;;
15480;SDS011;7842;50.904;6.670;2022-08-19T11:39:45;27.85;;;23.83;;
15480;SDS011;7842;50.904;6.670;2022-08-19T11:42:11;24.85;;;22.15;;
15480;SDS011;7842;50.904;6.670;2022-08-19T11:44:56;25.45;;;21.50;;
15480;SDS011;7842;50.904;6.670;2022-08-19T11:47:22;23.95;;;21.33;;
15480;SDS011;7842;50.904;6.670;2022-08-19T11:49:48;23.42;;;20.40;;
15480;SDS011;7842;50.904;6.670;2022-08-19T11:52:14;21.67;;;19.27;;
15480;SDS011;7842;50.904;6.670;2022-08-19T11:54:41;24.60;;;19.48;;
15480;SDS011;7842;50.904;6.670;2022-08-19T11:57:07;20.02;;;17.42;;
15480;SDS011;7842;50.904;6.670;2022-08-19T11:59:33;19.08;;;15.93;;
15480;SDS011;7842;50.904;6.670;2022-08-19T12:01:59;16.63;;;14.45;;
15480;SDS011;7842;50.904;6.670;2022-08-19T12:04:25;20.40;;;16.83;;
15480;SDS011;7842;50.904;6.670;2022-08-19T12:06:51;19.63;;;15.90;;
15480;SDS011;7842;50.904;6.670;2022-08-19T12:09:18;16.67;;;14.77;;
15480;SDS011;7842;50.904;6.670;2022-08-19T12:11:44;18.95;;;15.45;;
15480;SDS011;7842;50.904;6.670;2022-08-19T12:14:11;17.08;;;14.40;;
15480;SDS011;7842;50.904;6.670;2022-08-19T12:16:38;16.08;;;13.90;;
15480;SDS011;7842;50.904;6.670;2022-08-19T12:19:04;17.58;;;13.43;;
15480;SDS011;7842;50.904;6.670;2022-08-19T12:21:31;15.27;;;12.85;;
15480;SDS011;7842;50.904;6.670;2022-08-19T12:23:59;13.57;;;11.73;;
15480;SDS011;7842;50.904;6.670;2022-08-19T12:26:25;13.40;;;10.90;;
15480;SDS011;7842;50.904;6.670;2022-08-19T12:28:52;15.63;;;11.80;;
15480;SDS011;7842;50.904;6.670;2022-08-19T12:31:18;12.70;;;11.02;;
15480;SDS011;7842;50.904;6.670;2022-08-19T12:33:44;13.32;;;11.40;;
15480;SDS011;7842;50.904;6.670;2022-08-19T12:36:12;12.23;;;10.32;;
15480;SDS011;7842;50.904;6.670;2022-08-19T12:38:38;11.60;;;10.20;;
15480;SDS011;7842;50.904;6.670;2022-08-19T12:41:04;14.98;;;12.05;;
15480;SDS011;7842;50.904;6.670;2022-08-19T12:43:32;15.60;;;13.50;;
15480;SDS011;7842;50.904;6.670;2022-08-19T12:45:59;14.50;;;12.35;;
15480;SDS011;7842;50.904;6.670;2022-08-19T12:48:29;14.85;;;11.75;;
15480;SDS011;7842;50.904;6.670;2022-08-19T12:50:55;14.35;;;12.05;;
15480;SDS011;7842;50.904;6.670;2022-08-19T12:53:21;16.97;;;13.73;;
15480;SDS011;7842;50.904;6.670;2022-08-19T12:55:47;15.95;;;13.60;;
15480;SDS011;7842;50.904;6.670;2022-08-19T12:58:13;18.58;;;14.32;;
15480;SDS011;7842;50.904;6.670;2022-08-19T13:00:39;15.32;;;13.60;;
15480;SDS011;7842;50.904;6.670;2022-08-19T13:03:05;15.05;;;13.07;;
15480;SDS011;7842;50.904;6.670;2022-08-19T13:05:32;15.57;;;13.73;;
15480;SDS011;7842;50.904;6.670;2022-08-19T13:08:01;14.15;;;12.63;;
15480;SDS011;7842;50.904;6.670;2022-08-19T13:10:31;14.03;;;12.63;;
15480;SDS011;7842;50.904;6.670;2022-08-19T13:13:00;14.50;;;12.43;;
15480;SDS011;7842;50.904;6.670;2022-08-19T13:15:26;16.17;;;13.13;;
15480;SDS011;7842;50.904;6.670;2022-08-19T13:17:53;13.60;;;11.32;;
15480;SDS011;7842;50.904;6.670;2022-08-19T13:20:20;12.50;;;10.88;;
15480;SDS011;7842;50.904;6.670;2022-08-19T13:22:47;12.68;;;10.82;;
15480;SDS011;7842;50.904;6.670;2022-08-19T13:25:13;12.90;;;11.45;;
15480;SDS011;7842;50.904;6.670;2022-08-19T13:27:41;15.05;;;12.40;;
15480;SDS011;7842;50.904;6.670;2022-08-19T13:30:08;15.10;;;13.30;;
15480;SDS011;7842;50.904;6.670;2022-08-19T13:32:56;13.93;;;12.50;;
15480;SDS011;7842;50.904;6.670;2022-08-19T13:35:38;14.43;;;11.75;;
15480;SDS011;7842;50.904;6.670;2022-08-19T13:38:05;15.35;;;12.65;;
15480;SDS011;7842;50.904;6.670;2022-08-19T13:40:32;15.45;;;12.35;;
15480;SDS011;7842;50.904;6.670;2022-08-19T13:42:59;15.30;;;12.55;;
15480;SDS011;7842;50.904;6.670;2022-08-19T13:45:26;15.25;;;12.13;;
15480;SDS011;7842;50.904;6.670;2022-08-19T13:47:54;15.85;;;12.15;;
15480;SDS011;7842;50.904;6.670;2022-08-19T13:50:23;15.15;;;11.88;;
15480;SDS011;7842;50.904;6.670;2022-08-19T13:52:53;12.73;;;11.38;;
15480;SDS011;7842;50.904;6.670;2022-08-19T13:55:20;12.65;;;9.77;;
15480;SDS011;7842;50.904;6.670;2022-08-19T13:57:49;11.20;;;9.87;;
15480;SDS011;7842;50.904;6.670;2022-08-19T14:00:16;9.88;;;8.77;;
15480;SDS011;7842;50.904;6.670;2022-08-19T14:03:07;9.30;;;8.00;;
15480;SDS011;7842;50.904;6.670;2022-08-19T14:05:36;8.57;;;7.43;;
15480;SDS011;7842;50.904;6.670;2022-08-19T14:08:08;7.47;;;6.50;;
15480;SDS011;7842;50.904;6.670;2022-08-19T14:10:37;7.20;;;6.28;;
15480;SDS011;7842;50.904;6.670;2022-08-19T14:13:04;8.02;;;5.60;;
15480;SDS011;7842;50.904;6.670;2022-08-19T14:15:33;7.20;;;4.70;;
15480;SDS011;7842;50.904;6.670;2022-08-19T14:18:02;6.70;;;4.63;;
15480;SDS011;7842;50.904;6.670;2022-08-19T14:20:33;6.50;;;4.53;;
15480;SDS011;7842;50.904;6.670;2022-08-19T14:23:00;6.30;;;4.95;;
15480;SDS011;7842;50.904;6.670;2022-08-19T14:25:27;4.75;;;4.25;;
15480;SDS011;7842;50.904;6.670;2022-08-19T14:27:54;5.53;;;4.28;;
15480;SDS011;7842;50.904;6.670;2022-08-19T14:30:24;5.07;;;4.43;;
15480;SDS011;7842;50.904;6.670;2022-08-19T14:32:58;4.63;;;4.00;;
15480;SDS011;7842;50.904;6.670;2022-08-19T14:35:28;5.20;;;4.13;;
15480;SDS011;7842;50.904;6.670;2022-08-19T14:37:55;4.55;;;4.00;;
15480;SDS011;7842;50.904;6.670;2022-08-19T14:40:23;5.70;;;4.32;;
15480;SDS011;7842;50.904;6.670;2022-08-19T14:42:54;5.55;;;4.57;;
15480;SDS011;7842;50.904;6.670;2022-08-19T14:45:24;5.93;;;4.50;;
15480;SDS011;7842;50.904;6.670;2022-08-19T14:47:51;4.38;;;3.90;;
15480;SDS011;7842;50.904;6.670;2022-08-19T14:50:17;5.50;;;4.28;;